createdAt,value
2018-02-17T00:00:05.665Z,9.40
2018-02-17T00:02:34.091Z,9.27
2018-02-17T00:05:02.433Z,10.90
2018-02-17T00:07:31.573Z,10.03
2018-02-17T00:09:59.964Z,10.17
2018-02-17T00:12:28.310Z,9.37
2018-02-17T00:14:56.653Z,10.23
2018-02-17T00:17:25.102Z,9.23
2018-02-17T00:19:53.451Z,9.00
2018-02-17T00:22:21.830Z,10.23
2018-02-17T00:24:50.937Z,10.37
2018-02-17T00:27:19.267Z,10.50
2018-02-17T00:29:47.631Z,10.23
2018-02-17T00:32:15.963Z,9.67
2018-02-17T00:34:45.107Z,11.07
2018-02-17T00:37:13.440Z,9.73
2018-02-17T00:39:42.552Z,10.60
2018-02-17T00:42:10.953Z,10.63
2018-02-17T00:44:39.350Z,10.37
2018-02-17T00:47:07.711Z,10.10
2018-02-17T00:49:36.816Z,10.87
2018-02-17T00:52:05.155Z,10.23
2018-02-17T00:54:33.791Z,11.03
2018-02-17T00:57:02.130Z,11.10
2018-02-17T00:59:31.355Z,11.83
2018-02-17T01:01:59.728Z,11.67
2018-02-17T01:04:28.083Z,11.43
2018-02-17T01:06:57.193Z,11.13
2018-02-17T01:09:25.536Z,11.30
2018-02-17T01:11:53.878Z,11.13
2018-02-17T01:14:22.228Z,11.43
2018-02-17T01:16:51.346Z,12.87
2018-02-17T01:19:19.684Z,12.00
2018-02-17T01:21:48.049Z,12.10
2018-02-17T01:24:16.394Z,11.03
2018-02-17T01:26:44.938Z,11.70
2018-02-17T01:29:13.273Z,12.17
2018-02-17T01:31:41.654Z,13.20
2018-02-17T01:34:09.993Z,12.40
2018-02-17T01:36:39.101Z,12.23
2018-02-17T01:39:07.450Z,13.27
2018-02-17T01:41:35.827Z,10.53
2018-02-17T01:44:04.253Z,12.50
2018-02-17T01:46:32.584Z,10.00
2018-02-17T01:49:00.957Z,11.60
2018-02-17T01:51:29.291Z,11.30
2018-02-17T01:53:57.629Z,11.53
2018-02-17T01:56:25.981Z,12.23
2018-02-17T01:58:54.321Z,10.73
2018-02-17T02:01:22.705Z,11.47
2018-02-17T02:03:51.062Z,11.50
2018-02-17T02:06:20.151Z,12.37
2018-02-17T02:08:49.260Z,11.77
2018-02-17T02:11:17.597Z,11.80
2018-02-17T02:13:46.256Z,10.87
2018-02-17T02:16:14.664Z,11.57
2018-02-17T02:18:42.993Z,11.80
2018-02-17T02:21:11.335Z,12.37
2018-02-17T02:23:39.777Z,11.90
2018-02-17T02:26:08.108Z,11.90
2018-02-17T02:28:37.226Z,11.87
2018-02-17T02:31:06.028Z,12.40
2018-02-17T02:33:34.365Z,13.40
2018-02-17T02:36:02.702Z,12.97
2018-02-17T02:38:31.067Z,13.23
2018-02-17T02:40:59.401Z,12.20
2018-02-17T02:43:27.753Z,14.43
2018-02-17T02:45:56.170Z,14.07
2018-02-17T02:48:24.532Z,13.53
2018-02-17T02:50:52.908Z,13.50
2018-02-17T02:53:21.410Z,14.17
2018-02-17T02:55:49.733Z,14.40
2018-02-17T02:58:18.068Z,13.73
2018-02-17T03:00:46.418Z,14.57
2018-02-17T03:03:14.766Z,14.60
2018-02-17T03:05:43.117Z,14.73
2018-02-17T03:08:11.453Z,14.80
2018-02-17T03:10:39.958Z,14.87
2018-02-17T03:13:08.276Z,14.47
2018-02-17T03:15:36.668Z,14.77
2018-02-17T03:18:04.987Z,14.30
2018-02-17T03:20:33.319Z,14.17
2018-02-17T03:23:01.697Z,14.80
2018-02-17T03:25:30.149Z,15.10
2018-02-17T03:27:59.264Z,14.83
2018-02-17T03:30:27.685Z,15.43
2018-02-17T03:32:56.026Z,16.03
2018-02-17T03:35:24.369Z,15.33
2018-02-17T03:37:52.725Z,16.10
2018-02-17T03:40:21.083Z,15.50
2018-02-17T03:42:49.433Z,15.97
2018-02-17T03:45:17.772Z,15.53
2018-02-17T03:47:46.120Z,15.53
2018-02-17T03:50:14.447Z,15.57
2018-02-17T03:52:42.795Z,14.90
2018-02-17T03:55:11.270Z,16.03
2018-02-17T03:57:39.714Z,15.60
2018-02-17T04:00:08.044Z,16.17
2018-02-17T04:02:36.372Z,16.47
2018-02-17T04:05:04.721Z,15.60
2018-02-17T04:07:33.836Z,17.17
2018-02-17T04:10:02.225Z,16.17
2018-02-17T04:12:30.556Z,16.73
2018-02-17T04:14:59.679Z,16.20
2018-02-17T04:17:28.164Z,16.30
2018-02-17T04:19:56.497Z,16.40
2018-02-17T04:22:24.840Z,16.57
2018-02-17T04:24:53.209Z,16.30
2018-02-17T04:27:21.552Z,16.60
2018-02-17T04:29:50.691Z,16.37
2018-02-17T04:32:19.058Z,16.03
2018-02-17T04:34:47.448Z,16.93
2018-02-17T04:37:15.799Z,17.77
2018-02-17T04:39:45.464Z,16.23
2018-02-17T04:45:10.684Z,21.17
2018-02-17T04:47:41.192Z,16.77
2018-02-17T04:50:10.005Z,17.63
2018-02-17T04:52:44.291Z,16.97
2018-02-17T05:04:02.339Z,22.27
2018-02-17T05:06:36.476Z,19.50
2018-02-17T05:09:05.599Z,18.57
2018-02-17T05:11:33.941Z,18.53
2018-02-17T05:14:07.950Z,18.83
2018-02-17T05:16:41.983Z,18.57
2018-02-17T05:22:08.706Z,22.30
2018-02-17T05:24:42.585Z,18.67
2018-02-17T05:27:13.483Z,18.77
2018-02-17T05:29:43.184Z,20.53
2018-02-17T05:32:12.300Z,18.57
2018-02-17T05:34:40.649Z,18.83
2018-02-17T05:37:09.006Z,17.90
2018-02-17T05:39:40.950Z,18.47
2018-02-17T05:42:12.116Z,19.53
2018-02-17T05:44:52.172Z,19.40
2018-02-17T05:47:26.253Z,18.90
2018-02-17T05:49:55.144Z,19.30
2018-02-17T05:52:23.496Z,18.43
2018-02-17T05:54:51.909Z,19.87
2018-02-17T05:57:20.260Z,20.17
2018-02-17T05:59:48.609Z,18.27
2018-02-17T06:02:16.972Z,18.50
2018-02-17T06:04:45.468Z,19.67
2018-02-17T06:07:13.820Z,19.67
2018-02-17T06:09:42.188Z,19.40
2018-02-17T06:12:10.524Z,19.90
2018-02-17T06:14:38.978Z,20.20
2018-02-17T06:17:07.887Z,19.90
2018-02-17T06:19:37.004Z,21.17
2018-02-17T06:22:05.498Z,19.37
2018-02-17T06:24:34.184Z,20.90
2018-02-17T06:27:02.715Z,19.40
2018-02-17T06:29:31.041Z,20.37
2018-02-17T06:31:59.424Z,19.60
2018-02-17T06:34:27.800Z,19.93
2018-02-17T06:36:56.906Z,21.13
2018-02-17T06:39:25.239Z,18.00
2018-02-17T06:41:54.362Z,20.47
2018-02-17T06:44:22.766Z,20.10
2018-02-17T06:46:51.431Z,20.57
2018-02-17T06:49:19.897Z,17.77
2018-02-17T06:51:48.245Z,18.50
2018-02-17T06:54:16.673Z,17.73
2018-02-17T06:56:45.020Z,17.60
2018-02-17T06:59:14.169Z,18.90
2018-02-17T07:01:42.586Z,18.43
2018-02-17T07:04:10.997Z,17.70
2018-02-17T07:06:39.395Z,18.43
2018-02-17T07:09:07.737Z,17.70
2018-02-17T07:11:36.967Z,19.27
2018-02-17T07:14:05.351Z,18.70
2018-02-17T07:16:33.703Z,19.23
2018-02-17T07:19:02.109Z,19.63
2018-02-17T07:21:30.805Z,20.27
2018-02-17T07:23:59.740Z,18.23
2018-02-17T07:26:28.112Z,19.90
2018-02-17T07:28:56.676Z,18.33
2018-02-17T07:31:25.033Z,18.17
2018-02-17T07:33:53.386Z,18.10
2018-02-17T07:36:21.718Z,18.93
2018-02-17T07:38:50.072Z,17.87
2018-02-17T07:41:18.421Z,18.03
2018-02-17T07:43:46.766Z,18.23
2018-02-17T07:46:15.125Z,17.43
2018-02-17T07:48:43.464Z,28.40
2018-02-17T07:51:11.861Z,29.30
2018-02-17T07:53:40.354Z,20.63
2018-02-17T07:56:08.797Z,18.93
2018-02-17T07:58:37.975Z,17.73
2018-02-17T08:01:06.406Z,19.00
2018-02-17T08:03:34.741Z,45.07
2018-02-17T08:06:03.904Z,21.37
2018-02-17T08:08:32.227Z,19.07
2018-02-17T08:11:00.596Z,16.77
2018-02-17T08:13:29.699Z,17.83
2018-02-17T08:15:59.478Z,17.40
2018-02-17T08:18:27.822Z,19.10
2018-02-17T08:20:56.194Z,18.30
2018-02-17T08:23:24.540Z,19.10
2018-02-17T08:25:53.741Z,17.40
2018-02-17T08:28:22.083Z,18.23
2018-02-17T08:30:50.487Z,17.57
2018-02-17T08:33:19.192Z,16.20
2018-02-17T08:35:48.293Z,17.37
2018-02-17T08:38:16.699Z,17.13
2018-02-17T08:40:45.061Z,16.57
2018-02-17T08:43:13.474Z,17.30
2018-02-17T08:45:41.958Z,16.23
2018-02-17T08:48:10.276Z,18.37
2018-02-17T08:50:39.401Z,17.53
2018-02-17T08:53:07.748Z,18.30
2018-02-17T08:55:36.182Z,16.83
2018-02-17T08:58:04.566Z,18.43
2018-02-17T09:00:32.880Z,17.60
2018-02-17T09:03:01.258Z,17.50
2018-02-17T09:05:29.708Z,15.20
2018-02-17T09:07:58.048Z,16.10
2018-02-17T09:10:38.976Z,16.93
2018-02-17T09:13:07.330Z,16.23
2018-02-17T09:15:35.681Z,16.43
2018-02-17T09:18:04.071Z,17.13
2018-02-17T09:20:32.455Z,17.50
2018-02-17T09:23:00.805Z,18.50
2018-02-17T09:25:30.105Z,18.70
2018-02-17T09:27:58.515Z,17.03
2018-02-17T09:30:26.869Z,17.63
2018-02-17T09:32:55.986Z,18.93
2018-02-17T09:35:24.475Z,15.43
2018-02-17T09:37:52.834Z,16.90
2018-02-17T09:40:22.054Z,17.37
2018-02-17T09:42:50.423Z,16.53
2018-02-17T09:45:18.780Z,16.90
2018-02-17T09:47:47.129Z,17.57
2018-02-17T09:50:15.500Z,17.10
2018-02-17T09:52:43.844Z,17.73
2018-02-17T09:55:12.352Z,17.37
2018-02-17T09:57:40.695Z,18.33
2018-02-17T10:00:09.031Z,18.63
2018-02-17T10:02:37.377Z,18.00
2018-02-17T10:05:05.718Z,18.83
2018-02-17T10:07:34.880Z,49.73
2018-02-17T10:10:03.206Z,26.30
2018-02-17T10:12:31.569Z,18.77
2018-02-17T10:15:00.672Z,19.47
2018-02-17T10:17:29.788Z,17.17
2018-02-17T10:19:58.174Z,17.37
2018-02-17T10:22:26.660Z,17.73
2018-02-17T10:24:55.051Z,17.23
2018-02-17T10:27:23.420Z,18.07
2018-02-17T10:29:51.853Z,17.97
2018-02-17T10:32:20.978Z,18.53
2018-02-17T10:34:49.342Z,19.33
2018-02-17T10:37:17.745Z,17.63
2018-02-17T10:39:46.076Z,17.43
2018-02-17T10:42:14.415Z,17.30
2018-02-17T10:44:42.757Z,18.70
2018-02-17T10:47:11.887Z,18.17
2018-02-17T10:49:40.349Z,18.43
2018-02-17T10:52:09.557Z,19.40
2018-02-17T10:54:37.936Z,19.73
2018-02-17T10:57:06.309Z,18.70
2018-02-17T10:59:34.700Z,21.27
2018-02-17T11:02:03.036Z,20.20
2018-02-17T11:04:31.382Z,19.43
2018-02-17T11:06:59.728Z,20.57
2018-02-17T11:09:28.079Z,20.27
2018-02-17T11:11:57.196Z,21.17
2018-02-17T11:14:25.534Z,20.70
2018-02-17T11:16:53.887Z,19.80
2018-02-17T11:19:22.272Z,20.70
2018-02-17T11:21:50.648Z,20.43
2018-02-17T11:24:19.103Z,20.43
2018-02-17T11:26:47.693Z,20.57
2018-02-17T11:29:16.038Z,20.80
2018-02-17T11:31:45.136Z,20.03
2018-02-17T11:34:14.251Z,20.03
2018-02-17T11:36:42.589Z,20.67
2018-02-17T11:39:11.020Z,20.60
2018-02-17T11:41:39.505Z,19.13
2018-02-17T11:44:07.870Z,19.93
2018-02-17T11:46:36.223Z,20.57
2018-02-17T11:49:04.554Z,20.77
2018-02-17T11:51:32.941Z,20.00
2018-02-17T11:54:01.328Z,20.00
2018-02-17T11:56:29.775Z,18.97
2018-02-17T11:58:58.171Z,19.93
2018-02-17T12:01:26.539Z,19.13
2018-02-17T12:03:55.140Z,19.10
2018-02-17T12:06:23.514Z,18.93
2018-02-17T12:08:51.921Z,18.43
2018-02-17T12:11:20.317Z,18.30
2018-02-17T12:13:48.752Z,19.10
2018-02-17T12:16:17.117Z,18.60
2018-02-17T12:18:45.511Z,19.47
2018-02-17T12:21:13.889Z,18.63
2018-02-17T12:23:42.244Z,18.87
2018-02-17T12:26:10.585Z,17.17
2018-02-17T12:28:39.040Z,18.03
2018-02-17T12:31:07.429Z,16.27
2018-02-17T12:33:35.802Z,16.50
2018-02-17T12:36:04.156Z,16.70
2018-02-17T12:38:32.488Z,16.67
2018-02-17T12:41:00.820Z,17.23
2018-02-17T12:43:29.168Z,16.87
2018-02-17T12:45:57.525Z,16.17
2018-02-17T12:48:25.890Z,15.97
2018-02-17T12:50:54.349Z,16.67
2018-02-17T12:53:22.761Z,15.60
2018-02-17T12:55:51.101Z,15.83
2018-02-17T12:58:19.454Z,15.10
2018-02-17T13:00:47.790Z,14.97
2018-02-17T13:03:16.133Z,15.23
2018-02-17T13:05:44.583Z,14.67
2018-02-17T13:08:12.925Z,14.27
2018-02-17T13:10:41.308Z,13.57
2018-02-17T13:13:09.645Z,15.00
2018-02-17T13:15:37.990Z,12.97
2018-02-17T13:18:07.104Z,12.00
2018-02-17T13:20:35.453Z,13.03
2018-02-17T13:23:03.805Z,12.60
2018-02-17T13:25:32.165Z,12.63
2018-02-17T13:28:00.520Z,12.87
2018-02-17T13:30:28.981Z,13.73
2018-02-17T13:32:58.108Z,14.53
2018-02-17T13:35:26.449Z,13.60
2018-02-17T13:37:55.561Z,13.90
2018-02-17T13:40:24.792Z,12.47
2018-02-17T13:42:53.872Z,12.60
2018-02-17T13:45:22.268Z,11.80
2018-02-17T13:47:50.672Z,12.77
2018-02-17T13:50:19.002Z,11.53
2018-02-17T13:52:47.360Z,11.57
2018-02-17T13:55:16.506Z,12.23
2018-02-17T13:57:44.956Z,12.27
2018-02-17T14:00:14.068Z,11.77
2018-02-17T14:02:42.453Z,10.97
2018-02-17T14:05:10.788Z,10.73
2018-02-17T14:07:39.904Z,11.07
2018-02-17T14:10:08.292Z,10.40
2018-02-17T14:12:36.677Z,10.60
2018-02-17T14:15:05.025Z,11.63
2018-02-17T14:17:33.373Z,12.23
2018-02-17T14:20:01.817Z,10.50
2018-02-17T14:22:30.193Z,10.53
2018-02-17T14:24:58.536Z,10.83
2018-02-17T14:27:27.866Z,11.80
2018-02-17T14:29:56.956Z,10.77
2018-02-17T14:32:25.317Z,10.97
2018-02-17T14:34:53.732Z,11.30
2018-02-17T14:37:22.093Z,11.00
2018-02-17T14:39:50.498Z,11.90
2018-02-17T14:42:18.873Z,37.57
2018-02-17T14:44:47.249Z,12.10
2018-02-17T14:47:15.637Z,11.80
2018-02-17T14:49:44.102Z,10.97
2018-02-17T14:52:12.462Z,11.17
2018-02-17T14:54:40.811Z,10.63
2018-02-17T14:57:09.173Z,11.87
2018-02-17T14:59:37.530Z,10.27
2018-02-17T15:02:05.914Z,10.23
2018-02-17T15:04:34.298Z,9.80
2018-02-17T15:07:02.648Z,9.20
2018-02-17T15:09:30.994Z,9.10
2018-02-17T15:11:59.357Z,9.47
2018-02-17T15:14:27.804Z,9.70
2018-02-17T15:16:56.181Z,8.80
2018-02-17T15:19:24.579Z,8.73
2018-02-17T15:21:52.915Z,8.23
2018-02-17T15:24:22.034Z,8.87
2018-02-17T15:26:50.521Z,9.03
2018-02-17T15:29:18.875Z,9.60
2018-02-17T15:31:47.993Z,9.77
2018-02-17T15:34:16.385Z,9.67
2018-02-17T15:36:44.717Z,8.30
2018-02-17T15:39:13.061Z,9.67
2018-02-17T15:41:41.390Z,9.80
2018-02-17T15:44:09.742Z,10.03
2018-02-17T15:46:38.103Z,10.30
2018-02-17T15:49:06.554Z,10.43
2018-02-17T15:51:35.768Z,9.93
2018-02-17T15:54:04.113Z,9.03
2018-02-17T15:56:32.510Z,8.97
2018-02-17T15:59:00.848Z,8.27
2018-02-17T16:01:30.077Z,10.13
2018-02-17T16:03:58.488Z,10.10
2018-02-17T16:06:26.816Z,9.33
2018-02-17T16:08:55.345Z,9.23
2018-02-17T16:11:23.790Z,9.80
2018-02-17T16:13:52.182Z,8.80
2018-02-17T16:16:20.561Z,10.30
2018-02-17T16:18:48.965Z,11.00
2018-02-17T16:21:17.338Z,10.53
2018-02-17T16:23:45.681Z,10.93
2018-02-17T16:26:14.040Z,10.43
2018-02-17T16:28:43.155Z,10.50
2018-02-17T16:31:11.549Z,11.63
2018-02-17T16:33:39.963Z,10.40
2018-02-17T16:36:08.358Z,10.73
2018-02-17T16:38:36.724Z,11.07
2018-02-17T16:41:05.044Z,10.97
2018-02-17T16:43:34.169Z,11.17
2018-02-17T16:46:02.507Z,12.23
2018-02-17T16:48:31.605Z,13.30
2018-02-17T16:51:00.924Z,13.33
2018-02-17T16:53:29.319Z,20.97
2018-02-17T16:55:57.677Z,28.30
2018-02-17T16:58:26.775Z,17.30
2018-02-17T17:00:55.157Z,13.20
2018-02-17T17:03:23.503Z,14.00
2018-02-17T17:05:51.842Z,15.07
2018-02-17T17:08:20.187Z,15.53
2018-02-17T17:10:48.592Z,14.20
2018-02-17T17:13:16.949Z,15.87
2018-02-17T17:15:45.342Z,14.73
2018-02-17T17:18:13.742Z,14.03
2018-02-17T17:20:42.119Z,13.73
2018-02-17T17:23:10.460Z,15.73
2018-02-17T17:25:39.569Z,14.77
2018-02-17T17:28:07.935Z,12.47
2018-02-17T17:30:37.049Z,14.27
2018-02-17T17:33:05.403Z,14.90
2018-02-17T17:35:33.813Z,14.73
2018-02-17T17:38:02.294Z,14.33
2018-02-17T17:40:30.633Z,12.47
2018-02-17T17:42:58.996Z,14.40
2018-02-17T17:45:28.190Z,12.90
2018-02-17T17:47:56.535Z,12.80
2018-02-17T17:50:25.644Z,13.70
2018-02-17T17:52:54.014Z,13.13
2018-02-17T17:55:22.360Z,15.87
2018-02-17T17:57:51.468Z,20.63
2018-02-17T18:00:19.825Z,18.53
2018-02-17T18:02:48.944Z,15.27
2018-02-17T18:05:17.297Z,13.37
2018-02-17T18:07:46.408Z,13.07
2018-02-17T18:10:15.632Z,12.93
2018-02-17T18:12:44.022Z,13.07
2018-02-17T18:15:12.402Z,13.53
2018-02-17T18:17:40.761Z,13.37
2018-02-17T18:20:09.322Z,13.13
2018-02-17T18:22:37.648Z,14.77
2018-02-17T18:25:06.009Z,12.97
2018-02-17T18:27:34.379Z,12.70
2018-02-17T18:30:02.726Z,12.50
2018-02-17T18:32:31.148Z,14.23
2018-02-17T18:34:59.545Z,11.93
2018-02-17T18:37:28.105Z,11.80
2018-02-17T18:39:56.447Z,12.00
2018-02-17T18:42:24.787Z,10.80
2018-02-17T18:44:53.163Z,11.30
2018-02-17T18:47:21.505Z,10.90
2018-02-17T18:49:50.608Z,16.63
2018-02-17T18:52:19.015Z,26.03
2018-02-17T18:54:47.415Z,20.27
2018-02-17T18:57:15.780Z,14.10
2018-02-17T18:59:44.133Z,10.63
2018-02-17T19:02:12.514Z,10.37
2018-02-17T19:04:40.849Z,10.40
2018-02-17T19:07:09.201Z,9.40
2018-02-17T19:09:37.548Z,10.40
2018-02-17T19:12:05.949Z,9.70
2018-02-17T19:14:34.405Z,9.90
2018-02-17T19:17:02.787Z,9.73
2018-02-17T19:19:31.248Z,9.27
2018-02-17T19:22:00.346Z,9.83
2018-02-17T19:24:28.909Z,9.10
2018-02-17T19:26:57.239Z,9.43
2018-02-17T19:29:25.603Z,8.13
2018-02-17T19:31:53.958Z,7.97
2018-02-17T19:34:23.108Z,7.43
2018-02-17T19:36:51.483Z,8.10
2018-02-17T19:39:19.847Z,7.50
2018-02-17T19:41:48.333Z,8.17
2018-02-17T19:44:16.648Z,7.60
2018-02-17T19:46:45.099Z,7.83
2018-02-17T19:49:13.432Z,6.50
2018-02-17T19:51:42.532Z,6.97
2018-02-17T19:54:11.781Z,5.90
2018-02-17T19:56:40.110Z,5.93
2018-02-17T19:59:09.242Z,5.93
2018-02-17T20:01:37.602Z,4.60
2018-02-17T20:04:05.990Z,5.20
2018-02-17T20:06:34.349Z,4.73
2018-02-17T20:09:03.462Z,5.00
2018-02-17T20:11:31.805Z,4.63
2018-02-17T20:14:00.153Z,4.87
2018-02-17T20:16:28.485Z,5.27
2018-02-17T20:18:57.596Z,4.30
2018-02-17T20:21:25.972Z,4.97
2018-02-17T20:23:54.447Z,4.80
2018-02-17T20:26:22.793Z,4.27
2018-02-17T20:28:51.137Z,4.00
2018-02-17T20:31:19.470Z,4.07
2018-02-17T20:33:48.596Z,4.70
2018-02-17T20:36:16.925Z,4.50
2018-02-17T20:38:45.369Z,4.57
2018-02-17T20:41:13.721Z,13.57
2018-02-17T20:43:42.106Z,8.37
2018-02-17T20:46:10.531Z,6.00
2018-02-17T20:48:38.922Z,5.07
2018-02-17T20:51:07.254Z,4.80
2018-02-17T20:53:35.580Z,4.17
2018-02-17T20:56:04.022Z,4.80
2018-02-17T20:58:32.418Z,4.83
2018-02-17T21:01:00.801Z,5.03
2018-02-17T21:03:29.274Z,4.13
2018-02-17T21:05:57.612Z,5.30
2018-02-17T21:08:26.764Z,5.13
2018-02-17T21:10:55.127Z,4.87
2018-02-17T21:13:23.487Z,4.63
2018-02-17T21:15:51.855Z,5.23
2018-02-17T21:18:20.192Z,5.13
2018-02-17T21:20:49.446Z,4.47
2018-02-17T21:23:17.814Z,4.63
2018-02-17T21:25:46.251Z,29.03
2018-02-17T21:28:14.677Z,53.17
2018-02-17T21:30:43.009Z,16.77
2018-02-17T21:33:11.458Z,8.40
2018-02-17T21:35:39.804Z,6.17
2018-02-17T21:38:08.260Z,5.00
2018-02-17T21:40:37.430Z,5.80
2018-02-17T21:43:05.929Z,5.97
2018-02-17T21:45:34.266Z,5.70
2018-02-17T21:48:02.612Z,4.97
2018-02-17T21:50:30.969Z,5.53
2018-02-17T21:52:59.317Z,4.77
2018-02-17T21:55:27.664Z,5.30
2018-02-17T21:57:56.008Z,5.40
2018-02-17T22:00:25.147Z,5.67
2018-02-17T22:02:53.490Z,6.00
2018-02-17T22:05:21.825Z,6.57
2018-02-17T22:07:50.176Z,6.63
2018-02-17T22:10:18.531Z,6.00
2018-02-17T22:12:46.886Z,5.83
2018-02-17T22:15:15.290Z,4.67
2018-02-17T22:17:44.487Z,5.37
2018-02-17T22:20:12.849Z,6.07
2018-02-17T22:22:41.188Z,6.00
2018-02-17T22:25:09.524Z,11.10
2018-02-17T22:27:38.643Z,9.27
2018-02-17T22:30:07.000Z,7.77
2018-02-17T22:32:36.117Z,6.70
2018-02-17T22:35:04.473Z,6.43
2018-02-17T22:37:32.880Z,6.10
2018-02-17T22:40:01.209Z,6.10
2018-02-17T22:42:29.547Z,6.10
2018-02-17T22:44:57.948Z,6.57
2018-02-17T22:47:26.279Z,6.77
2018-02-17T22:49:54.629Z,6.17
2018-02-17T22:52:22.990Z,7.33
2018-02-17T22:54:51.330Z,5.70
2018-02-17T22:57:19.664Z,7.10
2018-02-17T22:59:48.017Z,6.43
2018-02-17T23:02:16.447Z,6.93
2018-02-17T23:04:45.684Z,6.33
2018-02-17T23:07:14.026Z,13.83
2018-02-17T23:09:43.223Z,13.77
2018-02-17T23:12:11.621Z,7.27
2018-02-17T23:14:40.003Z,6.20
2018-02-17T23:17:08.412Z,6.90
2018-02-17T23:19:36.753Z,6.53
2018-02-17T23:22:05.079Z,6.00
2018-02-17T23:24:34.139Z,5.87
2018-02-17T23:27:02.501Z,6.53
2018-02-17T23:29:30.827Z,6.97
2018-02-17T23:31:59.266Z,6.87
2018-02-17T23:34:27.608Z,6.73
2018-02-17T23:36:56.041Z,6.27
2018-02-17T23:39:24.374Z,6.40
2018-02-17T23:41:53.487Z,5.67
2018-02-17T23:44:22.580Z,6.00
2018-02-17T23:46:51.675Z,5.97
2018-02-17T23:49:20.895Z,6.60
2018-02-17T23:51:49.281Z,5.23
2018-02-17T23:54:17.614Z,6.33
2018-02-17T23:56:45.960Z,6.43
2018-02-17T23:59:14.737Z,10.77
